Time;durP1;ratioP1;P1;durP2;ratioP2;P2;SDS_P1;SDS_P2;PMS_P1;PMS_P2;Temp;Humidity;BMP_temperature;BMP_pressure;BME280_temperature;BME280_humidity;BME280_pressure;Samples;Min_cycle;Max_cycle;Signal;HPM_P1;HPM_P2
2022/05/12 00:00:57;;;;;;;10.10;6.15;;;;;;;19.35;51.70;100082.81;5033225;28;20476;-38
2022/05/12 00:03:24;;;;;;;8.07;6.25;;;;;;;19.30;51.51;100078.16;5033281;28;20021;-38
2022/05/12 00:05:50;;;;;;;8.77;5.38;;;;;;;18.68;51.64;100062.31;5033325;28;20323;-38
2022/05/12 00:08:15;;;;;;;7.50;5.80;;;;;;;18.87;52.30;100084.44;5033025;28;20024;-38
2022/05/12 00:10:42;;;;;;;7.47;5.45;;;;;;;18.92;52.17;100079.06;5032926;28;20022;-38
2022/05/12 00:13:08;;;;;;;7.43;5.35;;;;;;;18.83;52.06;100069.78;5033099;28;20049;-37
2022/05/12 00:15:35;;;;;;;6.55;5.30;;;;;;;18.84;51.69;100080.31;5033153;28;20036;-37
2022/05/12 00:18:04;;;;;;;8.90;5.13;;;;;;;18.92;51.55;100079.91;5033223;28;20021;-37
2022/05/12 00:20:32;;;;;;;8.35;5.20;;;;;;;18.98;51.46;100074.56;5032499;28;20389;-37
2022/05/12 00:23:22;;;;;;;7.75;4.82;;;;;;;18.99;51.41;100082.41;5032934;28;20033;-38
2022/05/12 00:25:49;;;;;;;8.00;4.90;;;;;;;19.06;51.25;100077.66;5032954;28;20029;-37
2022/05/12 00:28:20;;;;;;;7.22;5.03;;;;;;;19.03;51.23;100070.03;5032489;28;20041;-37
2022/05/12 00:30:47;;;;;;;6.35;5.00;;;;;;;19.09;51.40;100070.91;5032561;28;20087;-38
2022/05/12 00:33:14;;;;;;;7.00;5.03;;;;;;;19.01;51.28;100080.28;5033142;28;20020;-38
2022/05/12 00:35:41;;;;;;;8.77;5.10;;;;;;;18.94;51.53;100076.94;5032913;28;20143;-38
2022/05/12 00:38:07;;;;;;;6.88;5.07;;;;;;;18.90;51.74;100082.00;5032897;28;20028;-38
2022/05/12 00:40:33;;;;;;;6.18;5.20;;;;;;;18.95;51.60;100084.78;5032444;28;20021;-47
2022/05/12 00:43:05;;;;;;;5.95;4.90;;;;;;;18.84;52.52;100084.91;5032860;28;20033;-38
2022/05/12 00:45:35;;;;;;;7.55;5.38;;;;;;;18.36;53.22;100089.88;5031214;28;20068;-38
2022/05/12 00:48:02;;;;;;;7.18;5.20;;;;;;;18.28;53.21;100083.03;5031842;28;20037;-38
2022/05/12 00:50:36;;;;;;;8.43;5.32;;;;;;;18.47;53.27;100088.97;5031999;28;20029;-38
2022/05/12 00:53:04;;;;;;;8.32;5.68;;;;;;;18.51;53.03;100079.31;5031789;28;20112;-38
2022/05/12 00:55:36;;;;;;;7.00;4.85;;;;;;;18.50;53.55;100087.66;5032250;28;20033;-39
2022/05/12 00:58:06;;;;;;;8.38;5.25;;;;;;;18.43;54.07;100089.69;5031790;28;20061;-38
2022/05/12 01:00:31;;;;;;;;;;;;;;;18.76;53.01;100086.94;5032530;28;20048;-38
2022/05/12 01:03:02;;;;;;;7.03;5.20;;;;;;;18.49;53.53;100091.41;5030910;28;19909;-37
2022/05/12 01:05:29;;;;;;;8.55;5.40;;;;;;;18.26;54.57;100085.16;5032231;28;20074;-37
2022/05/12 01:07:56;;;;;;;8.52;5.40;;;;;;;18.14;54.66;100079.84;5032045;28;20029;-38
2022/05/12 01:10:23;;;;;;;7.30;5.43;;;;;;;18.06;55.00;100074.84;5032045;28;20116;-36
2022/05/12 01:12:50;;;;;;;8.35;5.40;;;;;;;18.10;54.05;100091.34;5031613;28;20108;-37
2022/05/12 01:15:18;;;;;;;8.30;5.47;;;;;;;18.01;54.45;100095.50;5031643;28;20025;-38
2022/05/12 01:17:46;;;;;;;9.55;5.82;;;;;;;18.09;53.96;100095.91;5032026;28;20481;-38
2022/05/12 01:20:13;;;;;;;7.45;5.60;;;;;;;18.16;54.15;100104.66;5031444;28;20074;-39
2022/05/12 01:22:56;;;;;;;6.85;5.88;;;;;;;18.18;54.25;100104.38;5031671;28;20048;-38
2022/05/12 01:25:26;;;;;;;7.50;5.82;;;;;;;18.12;53.95;100097.31;5030973;28;20029;-37
2022/05/12 01:27:52;;;;;;;9.25;5.90;;;;;;;18.12;54.23;100100.81;5031272;28;20054;-38
2022/05/12 01:30:20;;;;;;;10.43;5.70;;;;;;;18.05;53.90;100104.72;5031612;28;20040;-38
2022/05/12 01:32:47;;;;;;;11.98;5.63;;;;;;;18.08;53.53;100101.53;5031641;28;20493;-38
2022/05/12 01:35:18;;;;;;;9.20;5.47;;;;;;;18.06;54.08;100106.38;5031386;28;20490;-39
2022/05/12 01:37:45;;;;;;;8.90;5.50;;;;;;;18.09;53.93;100105.88;5031538;28;20029;-37
2022/05/12 01:40:15;;;;;;;7.03;5.63;;;;;;;18.02;53.82;100108.72;5031079;28;20097;-37
2022/05/12 01:42:41;;;;;;;8.30;5.75;;;;;;;17.99;54.05;100106.50;5031565;28;20037;-39
2022/05/12 01:45:07;;;;;;;9.82;6.00;;;;;;;17.95;53.63;100103.50;5031122;28;20029;-39
2022/05/12 01:47:35;;;;;;;7.97;5.63;;;;;;;17.93;53.33;100102.09;5031882;28;20037;-39
2022/05/12 01:50:01;;;;;;;10.20;5.95;;;;;;;17.90;53.49;100108.00;5031494;28;20025;-37
2022/05/12 01:52:26;;;;;;;10.88;5.80;;;;;;;17.89;53.03;100104.47;5031358;28;20036;-37
2022/05/12 01:54:52;;;;;;;9.18;5.63;;;;;;;17.86;53.20;100107.66;5031398;28;20021;-38
2022/05/12 01:57:19;;;;;;;8.95;5.70;;;;;;;17.91;52.64;100110.41;5031112;28;20025;-38
2022/05/12 01:59:44;;;;;;;8.13;5.18;;;;;;;17.98;51.77;100107.59;5031076;28;20021;-38
2022/05/12 02:02:10;;;;;;;9.90;5.65;;;;;;;17.89;51.65;100117.91;5031337;28;20036;-38
2022/05/12 02:04:35;;;;;;;10.82;6.00;;;;;;;17.90;51.34;100114.19;5031184;28;20473;-38
2022/05/12 02:07:00;;;;;;;8.55;6.00;;;;;;;17.92;51.65;100111.25;5030918;28;20408;-38
2022/05/12 02:09:26;;;;;;;9.50;5.72;;;;;;;17.88;52.04;100119.00;5031283;28;20485;-38
2022/05/12 02:11:51;;;;;;;9.15;5.60;;;;;;;17.89;51.83;100123.31;5030884;28;20475;-37
2022/05/12 02:14:17;;;;;;;13.80;5.78;;;;;;;17.82;51.12;100125.31;5031145;28;20026;-38
2022/05/12 02:16:42;;;;;;;9.85;5.28;;;;;;;17.50;51.29;100125.00;5030654;28;20026;-37
2022/05/12 02:19:09;;;;;;;9.07;5.50;;;;;;;17.38;51.68;100119.63;5036809;28;20055;-37
2022/05/12 02:21:35;;;;;;;7.97;5.18;;;;;;;17.35;52.66;100126.31;5050798;28;20044;-37
2022/05/12 02:24:01;;;;;;;8.80;5.20;;;;;;;17.37;53.14;100128.78;5050874;28;20025;-37
2022/05/12 02:26:28;;;;;;;11.27;5.25;;;;;;;17.42;52.54;100131.56;5050069;28;20484;-37
2022/05/12 02:28:54;;;;;;;7.90;5.07;;;;;;;17.35;53.08;100136.28;5050012;28;20049;-37
2022/05/12 02:31:20;;;;;;;8.77;5.28;;;;;;;17.27;53.39;100140.16;5050552;28;20035;-38
2022/05/12 02:33:45;;;;;;;8.93;5.80;;;;;;;17.04;55.09;100148.25;5049048;28;20025;-38
2022/05/12 02:36:10;;;;;;;10.50;6.13;;;;;;;17.14;54.37;100151.16;5050353;28;20048;-38
2022/05/12 02:38:36;;;;;;;11.35;6.22;;;;;;;17.19;54.38;100143.19;5050294;28;20033;-37
2022/05/12 02:41:01;;;;;;;11.10;7.63;;;;;;;17.14;54.55;100149.28;5050523;28;20036;-37
2022/05/12 02:43:29;;;;;;;11.57;8.25;;;;;;;16.85;55.08;100150.25;5050430;28;20025;-37
2022/05/12 02:46:10;;;;;;;10.18;7.20;;;;;;;16.88;55.81;100158.66;5050547;28;20466;-39
2022/05/12 02:48:41;;;;;;;12.93;8.48;;;;;;;16.84;55.37;100167.44;5050578;28;20107;-38
2022/05/12 02:51:07;;;;;;;21.27;11.25;;;;;;;16.71;56.02;100163.09;5050499;28;20074;-38
2022/05/12 02:53:33;;;;;;;20.23;11.93;;;;;;;16.69;56.20;100163.31;5043932;28;20025;-38
2022/05/12 02:56:00;;;;;;;15.88;11.52;;;;;;;16.68;56.89;100155.47;5030875;28;20362;-38
2022/05/12 02:58:27;;;;;;;15.70;10.93;;;;;;;16.71;56.08;100152.34;5029021;28;20158;-38
2022/05/12 03:00:53;;;;;;;18.23;10.52;;;;;;;16.86;55.70;100149.22;5029861;28;20033;-38
2022/05/12 03:03:19;;;;;;;15.45;10.75;;;;;;;16.91;55.41;100158.22;5030464;28;20473;-38
2022/05/12 03:05:44;;;;;;;16.35;10.77;;;;;;;16.80;56.17;100157.13;5030596;28;20033;-37
2022/05/12 03:08:10;;;;;;;18.10;9.57;;;;;;;16.78;56.27;100169.16;5030294;28;20033;-37
2022/05/12 03:10:37;;;;;;;17.25;9.85;;;;;;;16.78;56.07;100172.66;5030095;28;20027;-36
2022/05/12 03:13:03;;;;;;;18.90;9.52;;;;;;;16.86;56.04;100170.72;5030317;28;20096;-37
2022/05/12 03:15:29;;;;;;;26.90;16.42;;;;;;;16.78;56.41;100178.03;5030127;28;20029;-37
2022/05/12 03:17:55;;;;;;;27.45;13.85;;;;;;;16.80;56.19;100167.88;5030417;28;20027;-37
2022/05/12 03:20:23;;;;;;;22.35;12.43;;;;;;;16.91;55.96;100174.34;5045957;28;20489;-37
2022/05/12 03:22:49;;;;;;;139.57;78.82;;;;;;;17.00;56.17;100172.94;5049832;28;20029;-37
2022/05/12 03:25:16;;;;;;;52.10;30.80;;;;;;;16.98;55.43;100171.50;5050424;28;20017;-37
2022/05/12 03:27:42;;;;;;;21.50;12.48;;;;;;;17.09;56.10;100181.44;5053559;28;20464;-37
2022/05/12 03:30:12;;;;;;;17.23;9.80;;;;;;;17.09;55.79;100170.69;5053526;28;20489;-38
2022/05/12 03:32:37;;;;;;;;;;;;;;;17.36;55.29;100184.44;5053172;28;20515;-38
2022/05/12 03:35:04;;;;;;;19.92;8.45;;;;;;;17.25;54.91;100177.22;5052779;28;19955;-38
2022/05/12 03:37:30;;;;;;;13.48;8.68;;;;;;;17.29;54.99;100177.56;5052974;28;20028;-39
2022/05/12 03:39:55;;;;;;;21.23;8.43;;;;;;;17.29;55.45;100173.00;5052783;28;20025;-38
2022/05/12 03:42:21;;;;;;;18.42;8.80;;;;;;;17.33;55.35;100170.66;5052562;28;20040;-37
2022/05/12 03:44:46;;;;;;;16.15;7.90;;;;;;;17.34;55.42;100180.34;5052106;28;20028;-38
2022/05/12 03:47:14;;;;;;;16.45;9.35;;;;;;;17.49;55.35;100182.53;5052496;28;20089;-37
2022/05/12 03:49:41;;;;;;;17.88;8.63;;;;;;;17.67;54.71;100184.22;5051952;28;20055;-37
2022/05/12 03:52:06;;;;;;;18.95;8.63;;;;;;;17.87;54.23;100173.06;5052008;28;20080;-37
2022/05/12 03:54:32;;;;;;;20.77;9.50;;;;;;;18.13;54.13;100187.81;5051611;28;20540;-37
2022/05/12 03:56:57;;;;;;;17.48;8.65;;;;;;;18.41;53.31;100195.03;5051509;28;20468;-37
2022/05/12 03:59:23;;;;;;;16.83;8.43;;;;;;;18.66;52.57;100193.81;5052548;28;20021;-38
2022/05/12 04:01:48;;;;;;;21.70;8.95;;;;;;;18.94;51.72;100201.81;5051501;28;20021;-38
2022/05/12 04:04:14;;;;;;;21.63;8.77;;;;;;;19.33;51.42;100195.59;5052807;28;20118;-36
2022/05/12 04:06:40;;;;;;;20.98;8.95;;;;;;;19.69;50.87;100194.13;5052666;28;20040;-36
2022/05/12 04:09:06;;;;;;;27.38;8.80;;;;;;;19.96;49.89;100196.06;5052826;28;20137;-38
2022/05/12 04:11:31;;;;;;;20.73;7.90;;;;;;;20.33;48.94;100208.84;5052590;28;20398;-38
2022/05/12 04:13:56;;;;;;;14.30;7.35;;;;;;;20.69;47.76;100203.75;5052559;28;20017;-37
2022/05/12 04:16:23;;;;;;;14.60;6.50;;;;;;;21.02;46.98;100213.44;5052443;28;20029;-38
2022/05/12 04:18:48;;;;;;;18.75;7.28;;;;;;;21.44;47.17;100218.03;5048619;28;20040;-37
2022/05/12 04:21:16;;;;;;;31.10;14.45;;;;;;;21.78;45.51;100220.31;5032375;28;20405;-38
2022/05/12 04:23:44;;;;;;;36.58;19.13;;;;;;;21.82;44.95;100205.16;5032721;28;20099;-37
2022/05/12 04:26:10;;;;;;;19.55;7.82;;;;;;;22.27;43.51;100221.00;5032321;28;20397;-37
2022/05/12 04:28:36;;;;;;;13.77;5.65;;;;;;;22.64;42.97;100215.31;5031989;28;20086;-39
2022/05/12 04:31:02;;;;;;;12.50;7.57;;;;;;;22.85;41.89;100216.09;5032377;28;20113;-37
2022/05/12 04:36:13;;;;;;;9.30;5.25;;;;;;;23.46;40.05;100223.31;5032406;28;20095;-37
2022/05/12 04:38:39;;;;;;;5.72;4.10;;;;;;;23.83;39.27;100238.38;5034167;28;20511;-37
2022/05/12 04:41:04;;;;;;;34.83;19.33;;;;;;;24.21;38.05;100227.81;5052083;28;20033;-37
2022/05/12 04:43:30;;;;;;;15.35;7.13;;;;;;;24.50;38.07;100216.16;5048351;28;20021;-37
2022/05/12 04:45:55;;;;;;;10.63;4.60;;;;;;;24.86;37.10;100221.31;5031653;28;20046;-37
2022/05/12 04:48:21;;;;;;;9.45;4.15;;;;;;;25.08;36.25;100220.84;5031189;28;20087;-37
2022/05/12 04:50:46;;;;;;;13.32;4.18;;;;;;;25.25;35.78;100223.13;5031516;28;20021;-38
2022/05/12 04:53:12;;;;;;;7.30;4.10;;;;;;;25.62;35.40;100221.59;5032072;28;20032;-37
2022/05/12 04:55:38;;;;;;;6.65;4.18;;;;;;;25.93;34.69;100225.56;5031784;28;20071;-40
2022/05/12 04:58:04;;;;;;;13.52;4.53;;;;;;;26.18;35.63;100225.47;5031320;28;20021;-37
2022/05/12 05:00:37;;;;;;;7.65;4.10;;;;;;;26.48;33.17;100225.00;5031238;28;20036;-38
2022/05/12 05:03:04;;;;;;;7.03;5.10;;;;;;;26.69;32.55;100230.13;5031685;28;20121;-37
2022/05/12 05:05:30;;;;;;;8.40;5.03;;;;;;;26.69;38.77;100241.03;5034916;28;20025;-38
2022/05/12 05:07:55;;;;;;;11.52;4.40;;;;;;;26.89;33.19;100221.56;5051178;28;20021;-37
2022/05/12 05:10:21;;;;;;;9.00;3.85;;;;;;;27.57;31.93;100235.59;5050164;28;20485;-49
2022/05/12 05:12:47;;;;;;;12.55;5.70;;;;;;;27.81;31.68;100234.53;5050199;28;20020;-50
2022/05/12 05:15:14;;;;;;;16.55;9.57;;;;;;;28.13;30.85;100236.28;5050741;28;20329;-50
2022/05/12 05:17:41;;;;;;;21.75;7.97;;;;;;;28.40;30.40;100234.56;5050906;28;20059;-51
2022/05/12 05:20:11;;;;;;;11.35;5.82;;;;;;;28.54;29.33;100229.88;5050651;28;20021;-47
2022/05/12 05:22:37;;;;;;;10.75;4.50;;;;;;;28.66;29.52;100237.50;5051518;28;20036;-51
2022/05/12 05:25:04;;;;;;;8.38;3.80;;;;;;;28.71;29.09;100242.03;5051241;28;20032;-47
2022/05/12 05:27:29;;;;;;;13.52;7.35;;;;;;;28.62;28.79;100234.59;5049714;28;20063;-49
2022/05/12 05:29:55;;;;;;;11.10;6.15;;;;;;;28.45;28.77;100237.97;5050527;28;20033;-51
2022/05/12 05:32:21;;;;;;;7.60;4.20;;;;;;;28.70;28.82;100229.47;5050919;28;20029;-48
2022/05/12 05:34:47;;;;;;;12.35;4.30;;;;;;;27.35;30.27;100235.50;5051438;28;20356;-49
2022/05/12 05:37:13;;;;;;;9.60;4.43;;;;;;;28.23;29.98;100240.72;5050735;28;20104;-49
2022/05/12 05:39:38;;;;;;;9.05;4.15;;;;;;;28.92;28.94;100245.88;5049907;28;20092;-50
2022/05/12 05:42:11;;;;;;;7.90;4.20;;;;;;;29.33;28.32;100235.75;5050641;28;20021;-49
2022/05/12 05:44:36;;;;;;;8.82;4.05;;;;;;;29.72;28.08;100239.53;5050602;28;20368;-49
2022/05/12 05:47:03;;;;;;;7.70;3.63;;;;;;;29.95;28.00;100242.97;5050924;28;20029;-52
2022/05/12 05:49:30;;;;;;;7.03;4.30;;;;;;;29.26;27.85;100236.19;5050605;28;20025;-47
2022/05/12 05:54:40;;;;;;;6.57;3.90;;;;;;;30.01;27.45;100245.25;5050898;28;20028;-49
2022/05/12 05:57:06;;;;;;;10.25;4.20;;;;;;;30.64;27.03;100233.13;5050813;28;20029;-49
2022/05/12 05:59:31;;;;;;;7.20;4.35;;;;;;;31.07;26.22;100234.94;5050919;28;20542;-51
2022/05/12 06:01:57;;;;;;;6.55;4.20;;;;;;;30.70;26.11;100235.38;5050102;28;20025;-49
2022/05/12 06:04:23;;;;;;;5.93;4.45;;;;;;;31.10;25.68;100243.34;5050915;28;20082;-51
2022/05/12 06:06:49;;;;;;;12.55;6.80;;;;;;;31.32;25.76;100205.72;5050806;28;20040;-51
2022/05/12 06:09:15;;;;;;;9.60;4.15;;;;;;;32.04;24.97;100242.34;5050611;28;20051;-50
2022/05/12 06:11:43;;;;;;;9.40;4.07;;;;;;;32.27;24.79;100236.47;5050062;28;20044;-50
2022/05/12 06:14:09;;;;;;;6.65;4.18;;;;;;;32.30;24.50;100236.63;5050532;28;20144;-52
2022/05/12 06:16:35;;;;;;;5.72;3.83;;;;;;;32.57;24.54;100250.16;5050852;28;20036;-49
2022/05/12 06:19:01;;;;;;;7.32;4.40;;;;;;;33.02;23.70;100247.41;5045690;28;20504;-49
2022/05/12 06:21:26;;;;;;;6.25;3.85;;;;;;;33.13;23.63;100238.69;5030433;28;20083;-49
2022/05/12 06:23:52;;;;;;;8.90;3.88;;;;;;;33.22;23.76;100231.91;5029833;28;20033;-50
2022/05/12 06:26:17;;;;;;;6.18;4.05;;;;;;;33.23;23.33;100239.06;5030465;28;20044;-47
2022/05/12 06:28:46;;;;;;;6.05;3.95;;;;;;;33.39;23.31;100239.16;5030010;28;20579;-50
2022/05/12 06:31:24;;;;;;;6.88;4.35;;;;;;;33.12;23.73;100232.38;5029990;28;20044;-51
2022/05/12 06:33:50;;;;;;;9.52;4.40;;;;;;;33.33;23.47;100234.22;5030116;28;20029;-52
2022/05/12 06:36:16;;;;;;;10.23;4.15;;;;;;;33.00;24.10;100243.38;5030332;28;20064;-52
2022/05/12 06:38:41;;;;;;;7.20;4.15;;;;;;;33.26;23.25;100243.88;5030161;28;20053;-51
2022/05/12 06:41:07;;;;;;;8.70;3.90;;;;;;;33.27;23.30;100208.84;5030078;28;20083;-50
2022/05/12 06:43:33;;;;;;;7.57;3.90;;;;;;;32.81;24.27;100236.47;5029896;28;20025;-50
2022/05/12 06:45:59;;;;;;;9.05;4.30;;;;;;;33.07;23.85;100241.66;5029957;28;20045;-49
2022/05/12 06:48:25;;;;;;;8.98;3.95;;;;;;;33.04;24.13;100239.59;5030216;28;20473;-48
2022/05/12 06:50:51;;;;;;;6.03;4.05;;;;;;;33.48;23.47;100226.03;5029955;28;20041;-51
2022/05/12 06:53:16;;;;;;;9.23;5.55;;;;;;;33.57;23.65;100217.66;5030154;28;20460;-49
2022/05/12 06:55:42;;;;;;;5.55;3.65;;;;;;;32.94;24.20;100237.28;5029693;28;20061;-50
2022/05/12 06:58:09;;;;;;;9.13;5.63;;;;;;;33.52;23.28;100225.38;5029657;28;20013;-50
2022/05/12 07:00:35;;;;;;;6.97;4.78;;;;;;;33.63;23.40;100227.31;5030372;28;20029;-50
2022/05/12 07:03:00;;;;;;;7.28;3.55;;;;;;;34.08;22.55;100231.81;5033568;28;20473;-52
2022/05/12 07:05:26;;;;;;;5.82;3.53;;;;;;;34.55;22.23;100226.78;5033458;28;20040;-52
2022/05/12 07:07:53;;;;;;;6.72;3.92;;;;;;;34.72;22.02;100226.47;5033641;28;20021;-51
2022/05/12 07:10:22;;;;;;;8.65;3.60;;;;;;;34.60;22.47;100223.78;5032992;28;20029;-51
2022/05/12 07:12:48;;;;;;;5.70;3.42;;;;;;;34.53;22.38;100218.84;5033413;28;20152;-51
2022/05/12 07:15:14;;;;;;;6.53;3.80;;;;;;;34.62;21.78;100213.97;5033109;28;20109;-51
2022/05/12 07:17:43;;;;;;;4.82;3.30;;;;;;;34.34;22.16;100221.50;5033509;28;20033;-50
2022/05/12 07:28:22;;;;;;;4.43;3.30;;;;;;;35.27;21.42;100218.38;5053015;28;20083;-53
2022/05/12 07:31:03;;;;;;;5.53;3.28;;;;;;;34.57;21.53;100214.22;5052545;28;20080;-50
2022/05/12 07:33:55;;;;;;;4.75;2.90;;;;;;;35.01;21.29;100214.19;5053520;28;20404;-47
2022/05/12 07:36:27;;;;;;;6.22;3.10;;;;;;;33.93;21.86;100210.47;5051673;28;20475;-52
2022/05/12 07:38:57;;;;;;;4.55;2.90;;;;;;;33.97;21.96;100210.56;5052859;28;20098;-50
2022/05/12 07:41:25;;;;;;;4.50;2.90;;;;;;;34.41;22.40;100214.19;5052622;28;20061;-51
2022/05/12 07:43:51;;;;;;;6.70;2.97;;;;;;;35.01;21.16;100205.91;5052762;28;20029;-52
2022/05/12 07:46:21;;;;;;;5.85;3.00;;;;;;;34.74;21.11;100204.81;5052787;28;20041;-49
2022/05/12 07:48:47;;;;;;;5.03;2.60;;;;;;;34.07;21.91;100199.81;5052612;28;20090;-48
2022/05/12 07:51:13;;;;;;;9.00;3.72;;;;;;;33.14;23.29;100208.03;5052770;28;20036;-54
2022/05/12 07:53:38;;;;;;;7.53;3.88;;;;;;;34.25;22.25;100205.88;5052694;28;20025;-51
2022/05/12 07:56:06;;;;;;;4.60;2.90;;;;;;;34.11;22.31;100208.22;5052286;28;20032;-50
2022/05/12 07:58:32;;;;;;;7.25;2.70;;;;;;;33.64;22.19;100201.34;5052532;28;20032;-52
2022/05/12 08:00:58;;;;;;;5.60;2.67;;;;;;;34.58;21.31;100201.22;5052495;28;20110;-49
2022/05/12 08:03:25;;;;;;;4.10;2.83;;;;;;;35.57;20.18;100202.06;5052272;28;20079;-51
2022/05/12 08:05:51;;;;;;;6.07;2.95;;;;;;;36.01;20.21;100198.25;5052165;28;20107;-47
2022/05/12 08:08:16;;;;;;;6.35;2.92;;;;;;;36.04;19.83;100197.50;5051991;28;20100;-48
2022/05/12 08:10:42;;;;;;;5.32;2.88;;;;;;;36.23;20.03;100191.19;5051596;28;20103;-50
2022/05/12 08:13:14;;;;;;;6.22;2.88;;;;;;;36.33;20.01;100198.91;5052258;28;20507;-52
2022/05/12 08:15:41;;;;;;;6.13;2.70;;;;;;;36.65;19.63;100192.31;5052205;28;20437;-51
2022/05/12 08:18:08;;;;;;;8.13;2.80;;;;;;;36.88;18.85;100192.34;5052154;28;20029;-51
2022/05/12 08:20:34;;;;;;;4.78;2.70;;;;;;;36.47;18.95;100198.34;5033718;28;20037;-51
2022/05/12 08:23:00;;;;;;;5.60;2.78;;;;;;;36.87;18.98;100196.31;5032287;28;20021;-52
2022/05/12 08:25:25;;;;;;;3.22;2.67;;;;;;;37.19;18.33;100196.03;5031915;28;20401;-52
2022/05/12 08:27:50;;;;;;;4.95;2.70;;;;;;;37.45;18.03;100193.25;5032160;28;20048;-51
2022/05/12 08:30:17;;;;;;;11.98;3.13;;;;;;;37.62;18.24;100191.09;5032054;28;20053;-50
2022/05/12 08:32:43;;;;;;;5.68;3.05;;;;;;;37.90;17.86;100185.09;5032305;28;20117;-51
2022/05/12 08:35:09;;;;;;;4.20;2.90;;;;;;;38.24;17.80;100182.34;5031828;28;20052;-51
2022/05/12 08:37:35;;;;;;;4.97;3.10;;;;;;;38.40;16.91;100182.09;5031983;28;20448;-51
2022/05/12 08:40:01;;;;;;;6.35;3.00;;;;;;;37.93;18.02;100179.59;5031490;28;20128;-50
2022/05/12 08:42:43;;;;;;;4.55;3.05;;;;;;;37.70;18.25;100178.91;5030079;28;20025;-49
2022/05/12 08:45:13;;;;;;;8.50;3.10;;;;;;;37.51;18.66;100180.63;5030949;28;20440;-50
2022/05/12 08:47:43;;;;;;;8.52;2.92;;;;;;;36.48;19.09;100176.97;5031382;28;20079;-48
2022/05/12 08:50:18;;;;;;;5.80;3.00;;;;;;;36.34;19.21;100183.06;5031172;28;20056;-49
2022/05/12 08:52:49;;;;;;;9.68;2.90;;;;;;;36.97;19.05;100182.59;5031174;28;20030;-52
2022/05/12 08:55:20;;;;;;;6.13;2.80;;;;;;;37.05;19.18;100177.16;5031454;28;20060;-52
2022/05/12 08:57:51;;;;;;;4.90;2.85;;;;;;;37.11;18.83;100172.88;5031456;28;20492;-50
2022/05/12 09:00:19;;;;;;;4.80;3.20;;;;;;;37.61;17.67;100184.75;5031242;28;20123;-52
2022/05/12 09:03:07;;;;;;;5.40;3.00;;;;;;;36.96;18.17;100183.78;5031405;28;20115;-51
2022/05/12 09:05:53;;;;;;;9.43;3.10;;;;;;;36.74;18.49;100181.81;5010733;28;20037;-50
2022/05/12 09:08:38;;;;;;;5.05;2.90;;;;;;;36.23;18.55;100171.00;5030987;28;20025;-51
2022/05/12 09:11:29;;;;;;;6.88;3.00;;;;;;;36.65;19.09;100170.97;5031004;28;20056;-52
2022/05/12 09:13:55;;;;;;;5.00;3.00;;;;;;;36.20;19.03;100169.78;5030575;28;20036;-50
2022/05/12 09:16:29;;;;;;;6.32;2.90;;;;;;;35.93;19.70;100160.50;5030878;28;20137;-51
2022/05/12 09:18:55;;;;;;;5.38;3.05;;;;;;;35.77;18.91;100161.38;5035086;28;20021;-50
2022/05/12 09:21:27;;;;;;;5.22;2.88;;;;;;;36.21;18.44;100163.03;5050489;28;20033;-49
2022/05/12 09:23:53;;;;;;;6.43;2.80;;;;;;;36.53;18.83;100162.84;5050255;28;20029;-50
2022/05/12 09:26:36;;;;;;;4.75;2.90;;;;;;;36.13;19.21;100169.59;5050665;28;20025;-52
2022/05/12 09:29:23;;;;;;;6.22;2.90;;;;;;;36.14;19.58;100166.47;5050600;28;20060;-51
2022/05/12 09:32:08;;;;;;;6.43;2.80;;;;;;;35.77;19.34;100157.81;5050332;28;20029;-50
2022/05/12 09:34:43;;;;;;;4.30;2.83;;;;;;;35.40;18.99;100166.50;5050469;28;20036;-50
2022/05/12 09:37:26;;;;;;;5.60;2.80;;;;;;;35.73;19.57;100163.28;5049911;28;20488;-50
2022/05/12 09:39:57;;;;;;;8.32;3.00;;;;;;;36.12;18.88;100160.50;5050202;28;20050;-52
2022/05/12 09:42:28;;;;;;;5.68;2.92;;;;;;;36.12;19.13;100162.44;5050445;28;20377;-52
2022/05/12 09:45:04;;;;;;;3.83;2.50;;;;;;;36.36;18.42;100153.03;5050458;28;20057;-51
2022/05/12 09:47:30;;;;;;;6.60;2.80;;;;;;;34.80;19.73;100155.59;5050470;28;20512;-51
2022/05/12 09:50:20;;;;;;;5.78;2.75;;;;;;;34.84;19.96;100149.03;5050087;28;20513;-52
2022/05/12 09:52:55;;;;;;;5.43;2.80;;;;;;;35.52;18.80;100141.47;5050402;28;20025;-51
2022/05/12 09:55:24;;;;;;;4.75;3.03;;;;;;;33.94;20.36;100136.75;5050144;28;20086;-50
2022/05/12 09:57:57;;;;;;;5.38;2.70;;;;;;;34.95;19.91;100140.16;5050260;28;20404;-51
2022/05/12 10:00:26;;;;;;;8.38;2.90;;;;;;;34.62;20.06;100142.13;5049854;28;20047;-52
2022/05/12 10:09:01;;;;;;;4.53;2.30;;;;;;;35.35;17.41;100123.31;5050229;28;20075;-50
2022/05/12 10:11:29;;;;;;;4.78;2.40;;;;;;;35.35;17.13;100120.56;5049463;28;20029;-52
2022/05/12 10:14:01;;;;;;;4.32;2.65;;;;;;;34.10;18.18;100123.78;5050126;28;20099;-48
2022/05/12 10:16:30;;;;;;;3.78;2.60;;;;;;;34.33;18.41;100114.91;5049721;28;20382;-51
2022/05/12 10:19:00;;;;;;;5.68;2.50;;;;;;;35.18;17.26;100118.19;5045275;28;20106;-51
2022/05/12 10:21:43;;;;;;;5.00;2.20;;;;;;;35.58;17.37;100108.78;5029944;28;20021;-51
2022/05/12 10:24:27;;;;;;;4.22;2.70;;;;;;;35.98;17.20;100118.69;5030355;28;20021;-52
2022/05/12 10:27:06;;;;;;;3.72;2.58;;;;;;;34.94;17.81;100108.97;5030316;28;20052;-50
2022/05/12 10:29:43;;;;;;;5.30;2.50;;;;;;;35.44;17.62;100109.28;5029737;28;20061;-51
2022/05/12 10:32:40;;;;;;;4.68;2.20;;;;;;;35.76;16.85;100106.41;5030122;28;20415;-51
2022/05/12 10:35:29;;;;;;;5.78;2.30;;;;;;;35.78;16.87;100102.09;5031639;28;20543;-49
2022/05/12 10:38:17;;;;;;;8.60;2.55;;;;;;;36.10;16.48;100101.91;5033903;28;20033;-49
2022/05/12 10:40:50;;;;;;;5.72;2.40;;;;;;;35.68;15.89;100090.81;5033427;28;20110;-49
2022/05/12 10:43:42;;;;;;;3.10;2.20;;;;;;;35.81;15.87;100101.38;5033506;28;20033;-51
2022/05/12 10:46:17;;;;;;;5.50;2.28;;;;;;;36.65;15.52;100098.91;5033978;28;20503;-49
2022/05/12 10:49:03;;;;;;;5.03;2.30;;;;;;;37.21;15.02;100097.41;5033762;28;20503;-51
2022/05/12 10:52:05;;;;;;;4.03;2.30;;;;;;;37.22;15.30;100089.88;5033803;28;20112;-51
2022/05/12 10:54:46;;;;;;;5.25;2.30;;;;;;;36.40;16.66;100082.69;5033891;28;20444;-51
2022/05/12 10:57:24;;;;;;;4.25;2.55;;;;;;;36.32;16.50;100088.47;5033364;28;20025;-49
2022/05/12 11:00:15;;;;;;;7.25;2.55;;;;;;;36.99;16.12;100082.38;5033344;28;20113;-51
2022/05/12 11:02:48;;;;;;;7.55;2.60;;;;;;;36.40;15.91;100085.47;5033632;28;20136;-52
2022/05/12 11:05:37;;;;;;;8.18;2.85;;;;;;;33.71;18.54;100075.81;5033493;28;20036;-52
2022/05/12 11:08:14;;;;;;;7.03;2.75;;;;;;;33.71;19.52;100073.84;5033531;28;20136;-52
2022/05/12 11:10:45;;;;;;;3.50;2.70;;;;;;;34.70;18.62;100076.03;5033005;28;20095;-51
2022/05/12 11:13:20;;;;;;;5.78;2.55;;;;;;;34.55;18.20;100063.78;5033357;28;20037;-51
2022/05/12 11:16:03;;;;;;;3.80;2.40;;;;;;;35.03;18.23;100065.34;5033485;28;20026;-50
2022/05/12 11:18:39;;;;;;;5.20;2.60;;;;;;;35.38;17.83;100059.00;5032826;28;20358;-50
2022/05/12 11:21:14;;;;;;;4.40;2.50;;;;;;;35.13;16.96;100052.09;5032734;28;20040;-49
2022/05/12 11:23:45;;;;;;;6.05;2.40;;;;;;;34.89;17.06;100048.44;5032978;28;20031;-51
2022/05/12 11:26:19;;;;;;;4.03;2.47;;;;;;;34.26;17.64;100054.81;5032619;28;20087;-51
2022/05/12 11:32:02;;;;;;;4.03;2.35;;;;;;;35.03;16.73;100048.75;5032575;28;20068;-49
2022/05/12 11:34:28;;;;;;;5.93;2.20;;;;;;;35.22;16.96;100038.88;5032690;28;20029;-49
2022/05/12 11:36:55;;;;;;;4.65;2.30;;;;;;;35.98;15.69;100046.69;5032465;28;20473;-51
2022/05/12 11:39:51;;;;;;;3.88;2.38;;;;;;;35.80;15.07;100041.63;5032982;28;20095;-51
2022/05/12 11:42:25;;;;;;;3.88;2.17;;;;;;;34.79;15.67;100033.22;5032088;28;20096;-50
2022/05/12 11:45:08;;;;;;;5.85;2.38;;;;;;;34.16;16.45;100033.25;5032578;28;20045;-50
2022/05/12 11:47:33;;;;;;;6.22;2.10;;;;;;;34.93;16.29;100021.66;5032216;28;20033;-50
2022/05/12 11:50:17;;;;;;;4.25;2.13;;;;;;;35.52;16.08;100016.97;5032847;28;20013;-51
2022/05/12 11:53:00;;;;;;;6.00;2.20;;;;;;;35.91;15.42;100014.16;5032337;28;20025;-51
2022/05/12 11:55:52;;;;;;;4.75;2.20;;;;;;;35.25;15.67;100010.50;5032840;28;20100;-50
2022/05/12 11:58:40;;;;;;;3.67;2.05;;;;;;;35.35;15.58;100020.97;5032197;28;20405;-50